Stanwood, Michigan
Current Conditions -  °F | °C
As of 4:54 AM on Saturday 29 Nov 2014 (Local Time) from KRQB Reporting Station
Scattered Clouds Scattered Clouds  
Wind Chill: -6°   Ceiling: Unl
Heat Index: -2°   Visibility: 10mi
Dew Point: -3°   Wind: 7mph
Humidity: 93%   Direction: 140°SE
Pressure: 29.86"   Gusts: NA
Location:  43.58°N, 85.45°W
Report Text: KRQB 290954Z AUTO 14006KT 10SM SCT019 SCT080 SCT120 M02/M03 A2986 RMK AO2 T10231033
Loading
Personal Weather Stations






























Interactive Weather Map New forecast layout! Learn more

10-Day Weather Forecast

Advertisements
Track Severe Weather on mobile